createdAt,value
2022-08-17T00:04:59.979Z,100530.95
2022-08-17T00:10:05.853Z,100536.08
2022-08-17T00:15:13.403Z,100536.94
2022-08-17T00:20:19.920Z,100540.69
2022-08-17T00:25:27.169Z,100541.72
2022-08-17T00:30:52.747Z,100538.31
2022-08-17T00:35:41.621Z,100540.88
2022-08-17T00:40:50.228Z,100534.95
2022-08-17T00:45:58.628Z,100535.13
2022-08-17T00:51:10.027Z,100534.44
2022-08-17T00:56:18.518Z,100526.77
2022-08-17T01:01:25.779Z,100524.05
2022-08-17T01:06:32.970Z,100521.52
2022-08-17T01:11:40.286Z,100522.38
2022-08-17T01:16:46.150Z,100523.73
2022-08-17T01:21:54.797Z,100529.70
2022-08-17T01:27:00.353Z,100530.72
2022-08-17T01:32:08.759Z,100533.30
2022-08-17T01:37:16.309Z,100537.39
2022-08-17T01:42:46.305Z,100538.36
2022-08-17T01:47:52.917Z,100545.16
2022-08-17T01:53:01.450Z,100540.41
2022-08-17T01:58:09.370Z,100540.92
2022-08-17T02:03:15.924Z,100542.30
2022-08-17T02:08:37.347Z,100546.39
2022-08-17T02:13:30.268Z,100544.67
2022-08-17T02:18:36.035Z,100547.05
2022-08-17T02:23:45.007Z,100547.22
2022-08-17T02:28:51.087Z,100551.47
2022-08-17T02:34:03.721Z,100546.52
2022-08-17T02:39:07.574Z,100555.36
2022-08-17T02:44:13.483Z,100547.70
2022-08-17T02:49:20.789Z,100559.80
2022-08-17T02:54:40.076Z,100556.73
2022-08-17T02:59:34.265Z,100558.75
2022-08-17T03:04:39.964Z,100557.88
2022-08-17T03:09:45.603Z,100559.95
2022-08-17T03:14:51.121Z,100566.06
2022-08-17T03:19:56.641Z,100572.69
2022-08-17T03:25:02.261Z,100570.81
2022-08-17T03:30:11.371Z,100567.73
2022-08-17T03:35:19.980Z,100568.58
2022-08-17T03:40:39.866Z,100568.40
2022-08-17T03:45:51.178Z,100569.27
2022-08-17T03:51:17.431Z,100564.31
2022-08-17T03:56:40.517Z,100567.53
2022-08-17T04:01:48.110Z,100567.53
2022-08-17T04:06:53.893Z,100563.11
2022-08-17T04:12:01.175Z,100561.23
2022-08-17T04:17:07.266Z,100554.11
2022-08-17T04:22:32.737Z,100559.23
2022-08-17T04:27:20.037Z,100565.53
2022-08-17T04:32:59.432Z,100561.28
2022-08-17T04:37:33.012Z,100563.83
2022-08-17T04:42:38.582Z,100566.75
2022-08-17T04:47:44.143Z,100572.22
2022-08-17T04:52:49.610Z,100576.83
2022-08-17T04:57:55.688Z,100585.70
2022-08-17T05:03:02.000Z,100594.70
2022-08-17T05:08:08.836Z,100599.51
2022-08-17T05:13:17.294Z,100595.77
2022-08-17T05:18:24.680Z,100602.97
2022-08-17T05:23:41.746Z,100609.28
2022-08-17T05:28:38.280Z,100614.22
2022-08-17T05:33:46.196Z,100620.17
2022-08-17T05:38:51.965Z,100622.57
2022-08-17T05:43:57.548Z,100625.64
2022-08-17T05:49:09.018Z,100625.59
2022-08-17T05:54:23.243Z,100630.37
2022-08-17T05:59:40.658Z,100634.33
2022-08-17T06:04:57.583Z,100635.38
2022-08-17T06:10:09.492Z,100642.54
2022-08-17T06:15:36.562Z,100646.09
2022-08-17T06:20:53.757Z,100650.52
2022-08-17T06:26:04.085Z,100644.63
2022-08-17T06:31:22.864Z,100647.30
2022-08-17T06:36:49.716Z,100651.77
2022-08-17T06:42:54.813Z,100656.44
2022-08-17T06:47:38.534Z,100647.73
2022-08-17T06:52:47.613Z,100662.64
2022-08-17T06:57:56.824Z,100662.05
2022-08-17T07:03:19.118Z,100671.61
2022-08-17T07:08:33.998Z,100675.88
2022-08-17T07:13:51.485Z,100674.89
2022-08-17T07:18:57.426Z,100681.38
2022-08-17T07:24:29.715Z,100685.31
2022-08-17T07:29:22.450Z,100686.55
2022-08-17T07:34:29.187Z,100687.47
2022-08-17T07:39:35.041Z,100685.23
2022-08-17T07:44:58.001Z,100697.26
2022-08-17T07:50:03.696Z,100684.02
2022-08-17T07:55:27.553Z,100694.89
2022-08-17T08:00:34.080Z,100692.97
2022-08-17T08:05:50.594Z,100700.94
2022-08-17T08:10:56.718Z,100697.28
2022-08-17T08:16:23.927Z,100694.54
2022-08-17T08:21:54.029Z,100703.55
2022-08-17T08:27:07.099Z,100707.15
2022-08-17T08:32:38.131Z,100708.27
2022-08-17T08:38:20.263Z,100715.74
2022-08-17T08:43:50.784Z,100711.44
2022-08-17T08:49:45.303Z,100718.19
2022-08-17T08:55:03.491Z,100720.57
2022-08-17T09:00:17.658Z,100715.52
2022-08-17T09:05:53.221Z,100708.66
2022-08-17T09:11:13.277Z,100706.94
2022-08-17T09:16:30.856Z,100715.44
2022-08-17T09:21:49.425Z,100707.63
2022-08-17T09:27:04.024Z,100709.35
2022-08-17T09:32:28.628Z,100708.89
2022-08-17T09:37:43.110Z,100703.97
2022-08-17T09:43:03.609Z,100703.27
2022-08-17T09:48:15.093Z,100702.33
2022-08-17T09:53:22.827Z,100700.69
2022-08-17T09:59:00.732Z,100701.27
2022-08-17T10:04:30.090Z,100703.66
2022-08-17T10:09:41.809Z,100690.95
2022-08-17T10:15:17.490Z,100695.31
2022-08-17T10:20:33.453Z,100685.44
2022-08-17T10:26:00.123Z,100698.35
2022-08-17T10:36:19.434Z,100698.36
2022-08-17T10:41:42.723Z,100694.85
2022-08-17T10:47:11.899Z,100692.69
2022-08-17T10:52:32.957Z,100693.18
2022-08-17T10:57:41.568Z,100691.01
2022-08-17T11:02:55.484Z,100680.98
2022-08-17T11:08:20.741Z,100683.23
2022-08-17T11:13:46.454Z,100690.91
2022-08-17T11:18:55.155Z,100680.83
2022-08-17T11:24:24.781Z,100680.61
2022-08-17T11:29:52.645Z,100681.98
2022-08-17T11:35:15.235Z,100687.83
2022-08-17T11:40:29.590Z,100690.36
2022-08-17T11:46:13.262Z,100687.41
2022-08-17T11:51:36.851Z,100685.19
2022-08-17T11:56:45.400Z,100675.17
2022-08-17T12:01:57.085Z,100675.62
2022-08-17T12:07:12.279Z,100680.38
2022-08-17T12:12:20.964Z,100670.96
2022-08-17T12:17:40.614Z,100679.40
2022-08-17T12:22:53.469Z,100673.34
2022-08-17T12:28:06.872Z,100673.96
2022-08-17T12:33:11.951Z,100671.06
2022-08-17T12:38:32.182Z,100682.56
2022-08-17T12:43:30.486Z,100671.94
2022-08-17T12:48:36.970Z,100663.16
2022-08-17T12:53:45.571Z,100656.61
2022-08-17T12:58:56.703Z,100660.36
2022-08-17T13:04:03.873Z,100657.59
2022-08-17T13:09:12.413Z,100664.19
2022-08-17T13:14:21.146Z,100657.95
2022-08-17T13:19:39.734Z,100655.15
2022-08-17T13:24:38.103Z,100645.56
2022-08-17T13:29:51.538Z,100638.41
2022-08-17T13:35:14.173Z,100640.86
2022-08-17T13:40:16.593Z,100646.97
2022-08-17T13:45:39.345Z,100647.52
2022-08-17T13:51:00.003Z,100641.04
2022-08-17T13:56:37.125Z,100632.06
2022-08-17T14:01:37.924Z,100629.34
2022-08-17T14:07:13.118Z,100630.31
2022-08-17T14:12:21.965Z,100637.25
2022-08-17T14:17:33.562Z,100636.89
2022-08-17T14:22:40.564Z,100636.91
2022-08-17T14:27:53.389Z,100633.77
2022-08-17T14:32:54.354Z,100632.30
2022-08-17T14:37:59.816Z,100622.47
2022-08-17T14:43:05.490Z,100632.07
2022-08-17T14:48:11.384Z,100633.27
2022-08-17T14:53:17.434Z,100639.17
2022-08-17T14:58:23.823Z,100635.02
2022-08-17T15:03:29.405Z,100633.27
2022-08-17T15:08:35.145Z,100638.01
2022-08-17T15:13:52.550Z,100631.66
2022-08-17T15:18:49.346Z,100626.75
2022-08-17T15:23:55.095Z,100619.69
2022-08-17T15:29:00.900Z,100614.62
2022-08-17T15:34:07.999Z,100620.61
2022-08-17T15:39:13.760Z,100628.33
2022-08-17T15:44:21.989Z,100624.02
2022-08-17T15:49:29.192Z,100621.56
2022-08-17T15:54:36.073Z,100626.03
2022-08-17T15:59:44.627Z,100622.08
2022-08-17T16:04:52.111Z,100620.31
2022-08-17T16:09:58.925Z,100612.61
2022-08-17T16:15:05.928Z,100618.31
2022-08-17T16:20:20.566Z,100613.06
2022-08-17T16:25:40.298Z,100612.08
2022-08-17T16:30:32.327Z,100617.99
2022-08-17T16:35:38.233Z,100616.94
2022-08-17T16:40:43.787Z,100619.61
2022-08-17T16:45:52.087Z,100631.73
2022-08-17T16:51:03.729Z,100627.67
2022-08-17T16:56:07.183Z,100630.45
2022-08-17T17:01:13.232Z,100615.14
2022-08-17T17:06:34.034Z,100625.30
2022-08-17T17:11:54.957Z,100618.80
2022-08-17T17:17:06.589Z,100622.38
2022-08-17T17:22:20.830Z,100621.38
2022-08-17T17:27:50.738Z,100631.16
2022-08-17T17:32:59.061Z,100634.40
2022-08-17T17:38:07.635Z,100636.00
2022-08-17T17:43:37.799Z,100636.78
2022-08-17T17:48:23.872Z,100636.06
2022-08-17T17:53:48.077Z,100630.02
2022-08-17T17:59:05.314Z,100622.19
2022-08-17T18:04:30.405Z,100620.77
2022-08-17T18:10:01.098Z,100631.17
2022-08-17T18:15:06.858Z,100626.05
2022-08-17T18:20:12.365Z,100629.43
2022-08-17T18:25:40.623Z,100646.25
2022-08-17T18:30:47.690Z,100654.70
2022-08-17T18:35:58.835Z,100656.96
2022-08-17T18:41:07.980Z,100654.86
2022-08-17T18:46:33.423Z,100659.03
2022-08-17T18:51:43.810Z,100664.29
2022-08-17T18:57:00.593Z,100667.93
2022-08-17T19:02:34.526Z,100669.62
2022-08-17T19:07:29.822Z,100667.10
2022-08-17T19:12:46.994Z,100663.98
2022-08-17T19:18:15.666Z,100672.05
2022-08-17T19:23:26.899Z,100670.13
2022-08-17T19:28:38.226Z,100671.97
2022-08-17T19:33:48.149Z,100680.55
2022-08-17T19:39:20.255Z,100689.62
2022-08-17T19:44:47.547Z,100695.44
2022-08-17T19:50:05.172Z,100678.47
2022-08-17T19:55:26.293Z,100679.67
2022-08-17T20:00:34.129Z,100679.41
2022-08-17T20:06:08.611Z,100667.87
2022-08-17T20:10:56.097Z,100674.14
2022-08-17T20:16:04.656Z,100658.31
2022-08-17T20:21:24.846Z,100659.45
2022-08-17T20:26:36.253Z,100662.05
2022-08-17T20:31:59.623Z,100660.80
2022-08-17T20:37:17.200Z,100654.00
2022-08-17T20:42:27.342Z,100657.94
2022-08-17T20:47:55.331Z,100656.42
2022-08-17T20:52:55.681Z,100655.88
2022-08-17T20:58:09.254Z,100655.98
2022-08-17T21:03:23.715Z,100640.09
2022-08-17T21:08:58.057Z,100649.79
2022-08-17T21:14:24.701Z,100649.06
2022-08-17T21:20:09.865Z,100654.98
2022-08-17T21:25:13.258Z,100651.32
2022-08-17T21:30:36.885Z,100657.36
2022-08-17T21:35:58.549Z,100660.53
2022-08-17T21:41:04.410Z,100662.16
2022-08-17T21:46:12.949Z,100658.95
2022-08-17T21:51:27.730Z,100660.73
2022-08-17T21:56:41.727Z,100664.09
2022-08-17T22:02:06.295Z,100661.73
2022-08-17T22:07:14.524Z,100662.83
2022-08-17T22:12:22.393Z,100652.69
2022-08-17T22:17:36.820Z,100662.82
2022-08-17T22:23:09.315Z,100656.38
2022-08-17T22:28:16.313Z,100647.52
2022-08-17T22:33:44.346Z,100656.31
2022-08-17T22:38:50.959Z,100659.81
2022-08-17T22:43:58.108Z,100653.17
2022-08-17T22:49:03.874Z,100653.20
2022-08-17T22:54:33.306Z,100656.03
2022-08-17T22:59:50.528Z,100651.43
2022-08-17T23:05:14.450Z,100662.09
2022-08-17T23:10:20.092Z,100651.20
2022-08-17T23:15:27.480Z,100654.47
2022-08-17T23:20:36.134Z,100654.83
2022-08-17T23:25:44.266Z,100650.53
2022-08-17T23:30:50.648Z,100649.17
2022-08-17T23:35:58.421Z,100650.37
2022-08-17T23:41:07.764Z,100649.54
2022-08-17T23:46:13.383Z,100642.86
2022-08-17T23:51:22.837Z,100640.30
2022-08-17T23:56:28.401Z,100632.59
